Time;durP1;ratioP1;P1;durP2;ratioP2;P2;SDS_P1;SDS_P2;PMS_P1;PMS_P2;Temp;Humidity;BMP_temperature;BMP_pressure;BME280_temperature;BME280_humidity;BME280_pressure;Samples;Min_cycle;Max_cycle;Signal;HPM_P1;HPM_P2
2023/04/23 00:01:18;;;;;;;14.05;10.50;;;;;;;15.13;71.79;100696.91;7391593;19;20021;-61
2023/04/23 00:03:45;;;;;;;13.10;9.45;;;;;;;15.17;71.99;100700.97;7392515;19;20374;-60
2023/04/23 00:06:13;;;;;;;14.13;9.85;;;;;;;15.10;71.98;100698.03;7393254;19;20505;-60
2023/04/23 00:08:41;;;;;;;13.07;9.43;;;;;;;15.16;71.54;100695.78;7393201;19;20505;-60
2023/04/23 00:11:08;;;;;;;13.57;9.57;;;;;;;15.06;71.18;100698.47;7393630;19;20014;-59
2023/04/23 00:13:36;;;;;;;13.15;10.07;;;;;;;15.02;71.22;100699.72;7391857;19;20014;-59
2023/04/23 00:16:03;;;;;;;12.75;10.02;;;;;;;15.02;71.38;100699.72;7391242;19;20386;-60
2023/04/23 00:18:31;;;;;;;13.60;10.75;;;;;;;15.03;71.55;100704.06;7388952;19;20014;-61
2023/04/23 00:20:58;;;;;;;15.85;13.00;;;;;;;15.01;71.30;100701.56;7393622;19;20428;-60
2023/04/23 00:23:25;;;;;;;16.38;12.60;;;;;;;14.97;70.98;100707.34;7389763;19;20019;-59
2023/04/23 00:25:52;;;;;;;16.90;13.55;;;;;;;14.87;71.03;100704.66;7392674;19;20050;-60
2023/04/23 00:28:19;;;;;;;17.52;13.35;;;;;;;14.87;70.93;100702.00;7392415;19;20520;-60
2023/04/23 00:30:48;;;;;;;16.90;13.57;;;;;;;14.86;70.72;100705.66;7392616;19;20479;-60
2023/04/23 00:33:15;;;;;;;17.42;13.57;;;;;;;14.84;70.39;100708.47;7390930;19;20074;-60
2023/04/23 00:35:42;;;;;;;17.05;14.27;;;;;;;14.69;70.36;100711.69;7390455;19;20029;-61
2023/04/23 00:38:09;;;;;;;17.10;13.70;;;;;;;14.68;69.97;100708.19;7391022;19;20491;-60
2023/04/23 00:40:36;;;;;;;18.77;14.63;;;;;;;14.66;69.82;100720.81;7390839;19;20027;-60
2023/04/23 00:43:03;;;;;;;18.35;14.57;;;;;;;14.56;69.51;100717.31;7389477;19;20010;-59
2023/04/23 00:45:30;;;;;;;19.40;14.02;;;;;;;14.55;69.23;100715.63;7388679;19;20017;-59
2023/04/23 00:47:58;;;;;;;17.70;14.70;;;;;;;14.49;69.76;100716.16;7391806;19;20026;-59
2023/04/23 00:50:25;;;;;;;15.52;13.23;;;;;;;14.43;69.97;100714.91;7389769;19;20551;-59
2023/04/23 00:52:52;;;;;;;18.27;15.13;;;;;;;14.47;70.17;100720.78;7389478;19;20022;-59
2023/04/23 00:55:20;;;;;;;18.48;15.38;;;;;;;14.37;70.70;100718.94;7392038;19;20015;-59
2023/04/23 00:57:47;;;;;;;18.70;15.73;;;;;;;14.23;71.22;100719.38;7389142;19;20046;-59
2023/04/23 01:00:14;;;;;;;18.55;15.63;;;;;;;14.28;70.84;100722.44;7391680;19;20552;-59
2023/04/23 01:02:43;;;;;;;18.15;15.25;;;;;;;14.26;70.88;100721.72;7390958;19;20131;-59
2023/04/23 01:05:11;;;;;;;18.88;15.70;;;;;;;14.10;71.33;100713.44;7392099;19;20089;-59
2023/04/23 01:07:38;;;;;;;18.92;16.45;;;;;;;14.13;71.20;100721.16;7391802;19;20022;-59
2023/04/23 01:10:06;;;;;;;18.65;15.93;;;;;;;14.20;71.50;100708.97;7391232;19;20024;-59
2023/04/23 01:12:33;;;;;;;22.00;17.95;;;;;;;14.20;71.29;100719.63;7389771;19;20494;-59
2023/04/23 01:15:01;;;;;;;20.13;16.35;;;;;;;14.17;71.53;100719.06;7390513;19;20505;-59
2023/04/23 01:17:28;;;;;;;22.42;17.88;;;;;;;14.11;71.29;100718.59;7391100;19;20023;-59
2023/04/23 01:19:55;;;;;;;20.17;17.10;;;;;;;14.03;71.20;100714.94;7387897;19;20634;-58
2023/04/23 01:22:22;;;;;;;18.73;15.07;;;;;;;14.01;70.87;100719.59;7386688;19;20018;-59
2023/04/23 01:24:50;;;;;;;21.23;15.80;;;;;;;13.97;70.35;100726.16;7389515;19;20499;-59
2023/04/23 01:27:18;;;;;;;20.92;16.17;;;;;;;13.87;70.16;100718.13;7388368;19;20515;-59
2023/04/23 01:29:46;;;;;;;19.80;15.93;;;;;;;13.87;69.93;100726.13;7390735;19;20091;-59
2023/04/23 01:32:14;;;;;;;20.10;16.10;;;;;;;13.86;69.82;100733.28;7388344;19;20185;-59
2023/04/23 01:34:41;;;;;;;21.70;16.50;;;;;;;13.83;69.95;100730.88;7390285;19;20011;-59
2023/04/23 01:37:10;;;;;;;20.05;15.82;;;;;;;13.79;70.11;100728.63;7390794;19;20022;-59
2023/04/23 01:39:37;;;;;;;22.60;16.83;;;;;;;13.76;70.44;100731.53;7388631;19;20022;-59
2023/04/23 01:42:06;;;;;;;22.33;17.35;;;;;;;13.72;70.29;100733.63;7388989;19;20025;-59
2023/04/23 01:44:33;;;;;;;19.92;16.38;;;;;;;13.78;69.95;100732.25;7390065;19;20058;-58
2023/04/23 01:47:00;;;;;;;20.83;16.52;;;;;;;13.68;70.24;100734.88;7390661;19;20392;-59
2023/04/23 01:49:27;;;;;;;22.55;17.25;;;;;;;13.67;70.49;100735.03;7388109;19;20478;-59
2023/04/23 01:51:54;;;;;;;22.15;17.45;;;;;;;13.60;70.65;100726.72;7388354;19;20022;-58
2023/04/23 01:54:21;;;;;;;24.30;17.73;;;;;;;13.57;70.82;100738.47;7389800;19;20491;-58
2023/04/23 01:56:48;;;;;;;24.08;17.35;;;;;;;13.63;70.67;100742.44;7389255;19;20018;-58
2023/04/23 01:59:15;;;;;;;24.70;18.33;;;;;;;13.66;70.23;100742.16;7387735;19;20035;-58
2023/04/23 02:01:45;;;;;;;24.27;18.85;;;;;;;13.62;70.49;100746.03;7390399;19;20031;-58
2023/04/23 02:04:14;;;;;;;25.13;18.65;;;;;;;13.51;70.54;100752.31;7388389;19;20060;-58
2023/04/23 02:06:43;;;;;;;24.85;18.58;;;;;;;13.43;70.60;100745.94;7388285;19;20022;-59
2023/04/23 02:09:10;;;;;;;24.77;17.90;;;;;;;13.43;70.43;100745.94;7389243;19;20082;-59
2023/04/23 02:11:37;;;;;;;24.73;17.45;;;;;;;13.39;70.07;100751.56;7390239;19;20015;-59
2023/04/23 02:14:05;;;;;;;22.23;16.98;;;;;;;13.36;70.34;100749.16;7387749;19;20018;-61
2023/04/23 02:16:33;;;;;;;24.08;17.73;;;;;;;13.40;69.86;100747.91;7389729;19;20039;-61
2023/04/23 02:19:00;;;;;;;22.48;16.90;;;;;;;13.34;69.95;100750.25;7385396;19;20082;-61
2023/04/23 02:21:28;;;;;;;21.23;16.38;;;;;;;13.32;69.96;100747.72;7389996;19;20022;-61
2023/04/23 02:23:56;;;;;;;24.38;16.88;;;;;;;13.19;70.46;100744.38;7391609;19;20043;-61
2023/04/23 02:26:23;;;;;;;23.30;16.05;;;;;;;13.21;70.39;100749.59;7397146;19;20019;-58
2023/04/23 02:28:50;;;;;;;22.45;16.52;;;;;;;13.18;70.33;100745.34;7396547;19;20031;-58
2023/04/23 02:31:19;;;;;;;21.63;16.30;;;;;;;13.19;69.97;100749.69;7396238;19;20330;-58
2023/04/23 02:33:46;;;;;;;21.33;16.30;;;;;;;13.11;70.29;100746.84;7394811;19;20030;-58
2023/04/23 02:36:13;;;;;;;22.60;16.77;;;;;;;13.09;70.32;100749.66;7396045;19;20018;-61
2023/04/23 02:38:41;;;;;;;21.77;16.50;;;;;;;13.08;70.05;100755.91;7393168;19;20019;-58
2023/04/23 02:41:08;;;;;;;20.77;15.70;;;;;;;13.04;70.49;100759.81;7396300;19;20030;-58
2023/04/23 02:43:35;;;;;;;21.20;16.25;;;;;;;13.06;70.21;100749.91;7394583;19;20019;-58
2023/04/23 02:46:06;;;;;;;22.25;16.35;;;;;;;13.08;70.20;100761.22;7395663;19;20014;-58
2023/04/23 02:48:40;;;;;;;21.80;16.92;;;;;;;13.06;70.27;100759.69;7394681;19;20109;-59
2023/04/23 02:51:10;;;;;;;23.92;16.55;;;;;;;13.05;70.29;100764.19;7395999;19;20011;-58
2023/04/23 02:53:37;;;;;;;22.85;16.83;;;;;;;13.00;70.27;100754.88;7395375;19;20528;-61
2023/04/23 02:56:06;;;;;;;22.45;17.42;;;;;;;12.96;70.25;100762.25;7393799;19;20022;-61
2023/04/23 02:58:33;;;;;;;21.95;16.27;;;;;;;13.07;70.02;100758.72;7393834;19;20489;-61
2023/04/23 03:01:01;;;;;;;21.23;16.10;;;;;;;13.04;69.90;100766.94;7395533;19;20021;-62
2023/04/23 03:03:30;;;;;;;20.50;15.70;;;;;;;13.02;69.80;100764.44;7394450;19;20026;-62
2023/04/23 03:06:01;;;;;;;21.83;16.38;;;;;;;13.01;70.23;100768.06;7395594;19;20014;-62
2023/04/23 03:08:28;;;;;;;19.92;15.32;;;;;;;12.98;69.85;100778.94;7395118;19;20102;-61
2023/04/23 03:10:55;;;;;;;22.80;15.27;;;;;;;12.95;70.32;100773.03;7395055;19;20290;-62
2023/04/23 03:13:24;;;;;;;19.35;15.10;;;;;;;13.00;69.82;100773.50;7392708;19;20019;-61
2023/04/23 03:15:53;;;;;;;22.45;14.38;;;;;;;13.12;68.94;100775.94;7394389;19;20010;-61
2023/04/23 03:18:20;;;;;;;19.98;14.98;;;;;;;13.07;68.77;100779.97;7392422;19;20382;-61
2023/04/23 03:20:48;;;;;;;19.48;14.70;;;;;;;13.00;69.06;100786.78;7392178;19;20030;-62
2023/04/23 03:23:15;;;;;;;20.33;14.48;;;;;;;12.92;69.10;100782.94;7391536;19;20029;-63
2023/04/23 03:25:42;;;;;;;18.27;14.60;;;;;;;12.95;68.95;100787.16;7392787;19;20035;-62
2023/04/23 03:28:09;;;;;;;21.50;15.55;;;;;;;12.96;69.01;100774.72;7393327;19;20021;-62
2023/04/23 03:30:37;;;;;;;20.42;14.48;;;;;;;12.92;69.04;100774.97;7390964;19;20086;-61
2023/04/23 03:33:04;;;;;;;22.77;15.30;;;;;;;12.91;68.97;100775.94;7393985;19;20082;-62
2023/04/23 03:35:31;;;;;;;20.55;15.00;;;;;;;12.91;69.24;100781.25;7392180;19;20019;-62
2023/04/23 03:38:00;;;;;;;22.33;15.48;;;;;;;12.77;69.46;100778.91;7392810;19;20017;-64
2023/04/23 03:40:27;;;;;;;23.08;16.55;;;;;;;12.76;69.50;100785.19;7394534;19;20134;-63
2023/04/23 03:42:59;;;;;;;20.52;15.50;;;;;;;12.74;69.61;100779.16;7393692;19;20018;-63
2023/04/23 03:45:26;;;;;;;23.33;16.13;;;;;;;12.70;69.89;100791.00;7392217;19;20037;-65
2023/04/23 03:47:54;;;;;;;19.85;14.38;;;;;;;12.76;69.86;100790.50;7392676;19;20039;-63
2023/04/23 03:50:21;;;;;;;24.60;16.42;;;;;;;12.77;70.16;100794.84;7394043;19;20587;-64
2023/04/23 03:52:51;;;;;;;22.17;16.35;;;;;;;12.78;70.16;100793.03;7392981;19;20022;-64
2023/04/23 03:55:21;;;;;;;21.27;15.77;;;;;;;12.81;70.34;100780.31;7393976;19;20333;-64
2023/04/23 03:57:48;;;;;;;22.02;16.35;;;;;;;12.79;70.27;100776.97;7392698;19;20087;-64
2023/04/23 04:00:15;;;;;;;23.23;16.67;;;;;;;12.66;70.74;100779.78;7393686;19;20090;-64
2023/04/23 04:02:46;;;;;;;21.30;15.85;;;;;;;12.69;70.44;100776.03;7393132;19;20110;-64
2023/04/23 04:05:16;;;;;;;22.30;16.23;;;;;;;12.70;70.44;100780.38;7393604;19;20043;-64
2023/04/23 04:07:43;;;;;;;20.98;15.93;;;;;;;12.58;70.75;100789.34;7394235;19;20011;-60
2023/04/23 04:10:10;;;;;;;21.02;15.70;;;;;;;12.66;70.44;100787.75;7391890;19;20019;-60
2023/04/23 04:12:38;;;;;;;22.88;16.23;;;;;;;12.73;70.16;100789.91;7392943;19;20018;-63
2023/04/23 04:15:06;;;;;;;24.80;16.65;;;;;;;12.76;69.58;100792.31;7391152;19;20038;-62
2023/04/23 04:17:33;;;;;;;22.52;15.95;;;;;;;12.67;69.75;100797.44;7391788;19;20461;-62
2023/04/23 04:20:00;;;;;;;20.98;16.10;;;;;;;12.74;69.61;100794.25;7391145;19;20019;-62
2023/04/23 04:22:28;;;;;;;21.92;16.33;;;;;;;12.75;69.40;100790.66;7391240;19;20033;-61
2023/04/23 04:24:56;;;;;;;22.40;16.25;;;;;;;12.67;69.41;100796.59;7392629;19;20102;-63
2023/04/23 04:27:23;;;;;;;21.60;16.27;;;;;;;12.64;69.28;100795.00;7393119;19;20022;-62
2023/04/23 04:29:50;;;;;;;22.65;16.40;;;;;;;12.62;69.64;100796.94;7392866;19;20409;-62
2023/04/23 04:32:22;;;;;;;20.80;15.98;;;;;;;12.67;69.47;100799.25;7392557;19;20015;-62
2023/04/23 04:34:49;;;;;;;20.52;16.42;;;;;;;12.59;69.53;100799.00;7391136;19;20381;-62
2023/04/23 04:37:19;;;;;;;23.58;17.60;;;;;;;12.58;69.61;100794.66;7392775;19;20038;-62
2023/04/23 04:39:47;;;;;;;20.38;15.93;;;;;;;12.59;69.35;100799.00;7390837;19;20081;-63
2023/04/23 04:42:14;;;;;;;21.50;16.75;;;;;;;12.63;69.53;100798.66;7390446;19;20018;-63
2023/04/23 04:44:42;;;;;;;22.52;16.70;;;;;;;12.68;69.10;100804.41;7390616;19;20029;-62
2023/04/23 04:47:09;;;;;;;20.52;16.52;;;;;;;12.70;69.36;100809.59;7391292;19;20021;-62
2023/04/23 04:49:37;;;;;;;23.40;16.73;;;;;;;12.67;69.25;100801.91;7392671;19;20346;-62
2023/04/23 04:52:04;;;;;;;20.88;16.27;;;;;;;12.65;69.27;100806.47;7392366;19;20022;-62
2023/04/23 04:54:34;;;;;;;23.70;17.33;;;;;;;12.62;69.57;100812.88;7392577;19;20037;-62
2023/04/23 04:57:01;;;;;;;24.42;18.77;;;;;;;12.61;69.49;100805.88;7392174;19;20176;-62
2023/04/23 04:59:28;;;;;;;22.27;16.90;;;;;;;12.66;69.36;100809.00;7390332;19;20014;-62
2023/04/23 05:01:55;;;;;;;22.05;16.98;;;;;;;12.74;69.20;100805.72;7391948;19;20022;-62
2023/04/23 05:04:25;;;;;;;22.65;17.42;;;;;;;12.66;69.37;100801.03;7389019;19;20051;-62
2023/04/23 05:06:52;;;;;;;22.27;16.88;;;;;;;12.59;69.49;100801.66;7391633;19;20019;-62
2023/04/23 05:09:21;;;;;;;22.42;17.42;;;;;;;12.63;69.71;100803.97;7389915;19;20014;-62
2023/04/23 05:11:48;;;;;;;24.95;18.75;;;;;;;12.56;69.30;100804.59;7391036;19;20022;-62
2023/04/23 05:14:15;;;;;;;23.17;17.75;;;;;;;12.61;69.54;100811.19;7390035;19;20359;-63
2023/04/23 05:16:42;;;;;;;21.20;17.20;;;;;;;12.60;69.70;100812.19;7391393;19;20074;-62
2023/04/23 05:19:09;;;;;;;22.40;18.05;;;;;;;12.56;69.61;100820.53;7388803;19;20026;-62
2023/04/23 05:21:37;;;;;;;26.55;19.50;;;;;;;12.61;69.10;100807.69;7391065;19;20018;-63
2023/04/23 05:24:07;;;;;;;25.40;20.10;;;;;;;12.49;69.34;100816.66;7390079;19;20487;-62
2023/04/23 05:26:37;;;;;;;23.90;18.35;;;;;;;12.46;69.39;100804.47;7389057;19;20483;-63
2023/04/23 05:29:04;;;;;;;26.27;19.17;;;;;;;12.57;69.15;100806.25;7391795;19;20015;-62
2023/04/23 05:31:31;;;;;;;22.38;17.05;;;;;;;12.67;68.74;100805.41;7390942;19;20544;-63
2023/04/23 05:33:58;;;;;;;22.27;17.77;;;;;;;12.66;68.74;100806.34;7387750;19;20040;-66
2023/04/23 05:36:26;;;;;;;24.45;18.65;;;;;;;12.68;68.78;100814.22;7390664;19;20010;-66
2023/04/23 05:38:53;;;;;;;25.95;18.98;;;;;;;12.60;68.73;100814.84;7389813;19;20023;-66
2023/04/23 05:41:23;;;;;;;23.90;18.00;;;;;;;12.72;68.08;100820.97;7389500;19;20479;-63
2023/04/23 05:43:50;;;;;;;24.35;17.83;;;;;;;12.79;67.85;100822.16;7387370;19;20018;-63
2023/04/23 05:46:17;;;;;;;22.45;18.05;;;;;;;12.74;67.90;100826.13;7390155;19;20100;-62
2023/04/23 05:48:44;;;;;;;23.52;18.05;;;;;;;12.69;67.95;100824.69;7390046;19;20037;-62
2023/04/23 05:51:14;;;;;;;24.85;18.98;;;;;;;12.80;67.31;100826.47;7389174;19;20015;-62
2023/04/23 05:53:41;;;;;;;24.80;18.98;;;;;;;12.76;67.68;100818.91;7387030;19;20015;-63
2023/04/23 05:56:08;;;;;;;24.38;18.58;;;;;;;12.63;68.30;100816.38;7389900;19;20019;-63
2023/04/23 05:58:37;;;;;;;23.65;17.77;;;;;;;12.65;68.59;100817.09;7392149;19;20021;-63
2023/04/23 06:01:04;;;;;;;23.38;18.42;;;;;;;12.73;68.15;100817.31;7397958;19;20022;-63
2023/04/23 06:03:32;;;;;;;25.23;18.65;;;;;;;12.76;68.36;100813.59;7394298;19;20377;-63
2023/04/23 06:05:59;;;;;;;23.42;18.52;;;;;;;12.81;67.87;100809.56;7395467;19;20602;-63
2023/04/23 06:08:26;;;;;;;24.52;18.70;;;;;;;12.90;67.70;100818.63;7396987;19;20027;-63
2023/04/23 06:10:55;;;;;;;28.50;19.73;;;;;;;12.93;67.38;100819.22;7397531;19;20014;-63
2023/04/23 06:13:21;;;;;;;24.95;18.73;;;;;;;12.90;67.47;100815.94;7395527;19;20019;-62
2023/04/23 06:15:49;;;;;;;26.35;20.23;;;;;;;12.78;67.87;100807.19;7397309;19;20035;-62
2023/04/23 06:18:18;;;;;;;27.35;20.73;;;;;;;12.71;67.98;100803.34;7397416;19;20025;-62
2023/04/23 06:20:47;;;;;;;25.67;19.58;;;;;;;12.72;68.16;100807.66;7397469;19;20026;-61
2023/04/23 06:23:14;;;;;;;23.75;18.90;;;;;;;12.79;67.70;100806.19;7395579;19;20022;-61
2023/04/23 06:25:41;;;;;;;24.20;19.30;;;;;;;12.84;67.51;100809.31;7395395;19;20029;-59
2023/04/23 06:28:08;;;;;;;24.17;18.48;;;;;;;12.80;67.07;100804.38;7396991;19;20035;-60
2023/04/23 06:30:35;;;;;;;28.75;21.58;;;;;;;12.79;67.56;100802.72;7396822;19;20031;-60
2023/04/23 06:33:02;;;;;;;23.50;18.58;;;;;;;12.73;68.38;100800.53;7393548;19;20039;-60
2023/04/23 06:35:30;;;;;;;28.17;20.98;;;;;;;12.63;68.75;100801.31;7395165;19;20015;-61
2023/04/23 06:37:57;;;;;;;27.48;20.02;;;;;;;12.67;68.45;100801.91;7394403;19;20364;-60
2023/04/23 06:40:24;;;;;;;23.30;18.40;;;;;;;12.68;68.24;100795.59;7392314;19;20081;-60
2023/04/23 06:42:51;;;;;;;24.95;19.77;;;;;;;12.80;67.93;100799.91;7395269;19;20061;-60
2023/04/23 06:45:19;;;;;;;26.65;20.27;;;;;;;12.79;67.78;100800.03;7396083;19;20014;-60
2023/04/23 06:47:48;;;;;;;23.70;18.13;;;;;;;12.77;67.45;100794.84;7396576;19;20043;-60
2023/04/23 06:50:16;;;;;;;25.48;18.98;;;;;;;12.87;67.47;100803.75;7395517;19;20760;-60
2023/04/23 06:52:43;;;;;;;26.73;20.00;;;;;;;12.89;67.25;100793.81;7394237;19;20023;-61
2023/04/23 06:55:10;;;;;;;26.02;20.13;;;;;;;12.85;67.46;100792.38;7394228;19;20022;-61
2023/04/23 06:57:37;;;;;;;25.63;19.02;;;;;;;12.85;66.96;100792.38;7394737;19;20018;-62
2023/04/23 07:00:13;;;;;;;26.17;20.08;;;;;;;12.87;66.88;100795.78;7393239;19;20554;-60
2023/04/23 07:02:40;;;;;;;24.65;19.23;;;;;;;12.96;66.83;100796.81;7395563;19;20089;-61
2023/04/23 07:05:09;;;;;;;23.20;18.90;;;;;;;12.85;67.18;100795.03;7395801;19;20018;-61
2023/04/23 07:07:37;;;;;;;27.15;20.13;;;;;;;12.81;67.35;100798.94;7394064;19;20017;-61
2023/04/23 07:10:04;;;;;;;26.50;20.33;;;;;;;12.83;67.18;100791.69;7394326;19;20433;-61
2023/04/23 07:12:32;;;;;;;22.63;18.40;;;;;;;12.81;67.76;100795.44;7393393;19;20082;-61
2023/04/23 07:14:59;;;;;;;26.33;20.60;;;;;;;12.77;67.99;100788.69;7394912;19;20077;-61
2023/04/23 07:17:26;;;;;;;27.05;21.65;;;;;;;12.77;67.99;100794.84;7395525;19;20085;-61
2023/04/23 07:19:53;;;;;;;26.55;20.60;;;;;;;12.75;67.80;100796.78;7391872;19;20505;-61
2023/04/23 07:22:20;;;;;;;26.83;21.00;;;;;;;12.81;67.48;100804.25;7394577;19;20018;-62
2023/04/23 07:24:47;;;;;;;25.77;20.50;;;;;;;12.88;67.21;100797.47;7392829;19;20514;-62
2023/04/23 07:27:14;;;;;;;27.00;21.90;;;;;;;13.02;66.58;100795.50;7395091;19;20086;-62
2023/04/23 07:29:41;;;;;;;27.50;20.63;;;;;;;13.03;66.85;100798.00;7394498;19;20014;-63
2023/04/23 07:32:11;;;;;;;26.55;21.50;;;;;;;13.15;66.75;100799.63;7393404;19;20019;-62
2023/04/23 07:34:39;;;;;;;27.10;22.05;;;;;;;13.16;66.46;100793.38;7393023;19;20042;-63
2023/04/23 07:37:06;;;;;;;29.92;22.90;;;;;;;13.23;66.38;100801.69;7394757;19;20018;-62
2023/04/23 07:39:36;;;;;;;28.67;22.20;;;;;;;13.23;65.89;100793.69;7393800;19;20015;-65
2023/04/23 07:42:04;;;;;;;28.08;21.83;;;;;;;13.40;65.60;100786.97;7393090;19;20487;-65
2023/04/23 07:44:32;;;;;;;29.98;23.40;;;;;;;13.56;64.46;100790.00;7392461;19;20022;-64
2023/04/23 07:46:59;;;;;;;29.20;22.58;;;;;;;13.54;64.34;100789.28;7394334;19;20498;-64
2023/04/23 07:49:27;;;;;;;29.48;22.50;;;;;;;13.51;64.19;100786.06;7393763;19;20043;-64
2023/04/23 07:51:54;;;;;;;29.95;23.38;;;;;;;13.56;64.10;100774.03;7393797;19;20018;-62
2023/04/23 07:54:30;;;;;;;27.15;20.90;;;;;;;13.66;63.66;100776.75;7394201;19;20035;-65
2023/04/23 07:56:57;;;;;;;29.98;22.33;;;;;;;13.76;63.39;100772.31;7394292;19;20113;-64
2023/04/23 07:59:25;;;;;;;26.08;20.52;;;;;;;13.73;62.62;100780.56;7393194;19;20058;-65
2023/04/23 08:01:55;;;;;;;24.83;18.73;;;;;;;13.67;61.94;100781.09;7394416;19;20014;-64
2023/04/23 08:04:25;;;;;;;24.33;19.73;;;;;;;13.65;61.46;100781.22;7391689;19;20026;-64
2023/04/23 08:06:52;;;;;;;26.80;20.73;;;;;;;13.65;61.26;100785.69;7393474;19;20483;-64
2023/04/23 08:09:22;;;;;;;26.90;20.23;;;;;;;13.78;61.27;100775.69;7392768;19;20018;-64
2023/04/23 08:11:49;;;;;;;22.88;17.50;;;;;;;13.74;60.50;100768.94;7392214;19;20078;-64
2023/04/23 08:14:17;;;;;;;24.38;18.40;;;;;;;13.84;60.10;100768.97;7391891;19;20041;-64
2023/04/23 08:16:44;;;;;;;24.58;18.58;;;;;;;13.90;59.76;100763.97;7391787;19;20022;-64
2023/04/23 08:19:12;;;;;;;25.70;19.17;;;;;;;13.93;59.65;100760.19;7392098;19;20042;-65
2023/04/23 08:21:39;;;;;;;25.85;20.05;;;;;;;13.94;59.78;100751.22;7390748;19;20014;-63
2023/04/23 08:24:06;;;;;;;27.48;19.60;;;;;;;14.00;59.54;100745.34;7391299;19;20014;-64
2023/04/23 08:26:36;;;;;;;25.98;19.23;;;;;;;13.99;59.73;100745.50;7390777;19;20014;-63
2023/04/23 08:29:05;;;;;;;26.48;19.10;;;;;;;14.12;59.77;100744.28;7392528;19;20089;-64
2023/04/23 08:31:36;;;;;;;26.92;20.15;;;;;;;14.25;59.32;100740.53;7391024;19;20410;-64
2023/04/23 08:34:05;;;;;;;24.73;18.63;;;;;;;14.33;59.26;100740.69;7391113;19;20102;-65
2023/04/23 08:36:32;;;;;;;28.70;20.45;;;;;;;14.37;59.34;100726.94;7390388;19;20025;-63
2023/04/23 08:39:00;;;;;;;27.40;20.33;;;;;;;14.39;59.31;100732.13;7392782;19;20566;-63
2023/04/23 08:41:37;;;;;;;25.73;19.50;;;;;;;14.40;59.02;100728.50;7392785;19;20403;-63
2023/04/23 08:44:07;;;;;;;24.38;18.27;;;;;;;14.48;58.71;100727.78;7392046;19;20022;-63
2023/04/23 08:46:36;;;;;;;22.70;17.67;;;;;;;14.49;57.73;100721.47;7392230;19;20010;-63
2023/04/23 08:49:06;;;;;;;23.02;17.50;;;;;;;14.46;57.13;100717.28;7392216;19;20011;-63
2023/04/23 08:51:37;;;;;;;21.80;16.90;;;;;;;14.54;56.95;100719.28;7392120;19;20014;-62
2023/04/23 08:54:13;;;;;;;22.00;16.98;;;;;;;14.59;56.19;100722.38;7391132;19;20013;-62
2023/04/23 08:56:44;;;;;;;26.30;17.00;;;;;;;14.56;55.69;100719.97;7391461;19;20014;-63
2023/04/23 08:59:11;;;;;;;20.30;15.05;;;;;;;14.67;55.84;100719.84;7392110;19;20038;-62
2023/04/23 09:01:40;;;;;;;20.20;15.40;;;;;;;14.73;55.47;100718.41;7391914;19;20487;-62
2023/04/23 09:04:08;;;;;;;24.77;17.65;;;;;;;14.69;55.57;100714.34;7390700;19;20024;-63
2023/04/23 09:06:36;;;;;;;24.77;18.10;;;;;;;14.73;56.22;100718.41;7391653;19;20024;-62
2023/04/23 09:09:06;;;;;;;25.90;18.90;;;;;;;14.77;56.47;100718.03;7391308;19;20018;-64
2023/04/23 09:11:36;;;;;;;26.13;19.63;;;;;;;14.76;56.10;100718.13;7394235;19;20029;-64
2023/04/23 09:14:03;;;;;;;24.88;18.23;;;;;;;14.78;56.39;100708.19;7388673;19;20022;-64
2023/04/23 09:16:35;;;;;;;22.60;16.60;;;;;;;14.94;56.29;100715.63;7391076;19;20094;-63
2023/04/23 09:19:02;;;;;;;21.67;16.92;;;;;;;14.95;55.88;100710.13;7391336;19;20018;-63
2023/04/23 09:21:31;;;;;;;25.20;17.13;;;;;;;15.01;55.45;100704.22;7387362;19;20428;-64
2023/04/23 09:23:58;;;;;;;22.45;16.52;;;;;;;15.00;55.41;100689.22;7390090;19;20025;-64
2023/04/23 09:26:25;;;;;;;20.73;15.68;;;;;;;15.07;54.69;100692.13;7390673;19;20085;-64
2023/04/23 09:28:52;;;;;;;20.50;14.57;;;;;;;15.19;54.26;100695.50;7388477;19;20508;-65
2023/04/23 09:31:21;;;;;;;21.45;14.73;;;;;;;15.18;53.33;100686.63;7388268;19;20019;-65
2023/04/23 09:33:55;;;;;;;17.30;13.25;;;;;;;15.20;53.10;100684.69;7389256;19;20010;-66
2023/04/23 09:36:22;;;;;;;20.13;14.18;;;;;;;15.31;53.27;100683.66;7390109;19;20024;-65
2023/04/23 09:38:49;;;;;;;17.23;13.02;;;;;;;15.40;52.45;100684.63;7388831;19;20074;-65
2023/04/23 09:41:26;;;;;;;17.25;12.30;;;;;;;15.45;52.47;100677.00;7388781;19;20098;-65
2023/04/23 09:43:56;;;;;;;18.42;13.38;;;;;;;15.53;52.49;100667.28;7389256;19;20036;-64
2023/04/23 09:46:39;;;;;;;17.25;13.73;;;;;;;15.62;51.83;100670.91;7388396;19;20018;-65
2023/04/23 09:49:10;;;;;;;17.65;13.00;;;;;;;15.60;52.55;100671.03;7390173;19;20082;-64
2023/04/23 09:51:39;;;;;;;18.27;12.93;;;;;;;15.66;52.36;100668.81;7390510;19;20532;-66
2023/04/23 09:54:23;;;;;;;18.52;13.20;;;;;;;15.71;51.46;100663.84;7388637;19;20146;-65
2023/04/23 09:57:00;;;;;;;18.33;12.85;;;;;;;15.75;52.35;100665.22;7390693;19;20559;-65
2023/04/23 09:59:29;;;;;;;15.90;11.45;;;;;;;15.86;51.97;100669.53;7387900;19;20479;-66
2023/04/23 10:02:06;;;;;;;16.95;12.20;;;;;;;15.98;51.72;100665.66;7390308;19;20014;-66
2023/04/23 10:04:34;;;;;;;18.00;13.02;;;;;;;15.98;51.41;100665.66;7389315;19;20017;-66
2023/04/23 10:07:07;;;;;;;19.20;12.90;;;;;;;15.95;50.88;100669.50;7388292;19;20018;-64
2023/04/23 10:09:46;;;;;;;17.58;12.43;;;;;;;15.98;50.77;100655.81;7389214;19;20018;-64
2023/04/23 10:12:13;;;;;;;17.08;12.13;;;;;;;16.07;51.13;100660.28;7389414;19;20090;-65
2023/04/23 10:15:02;;;;;;;15.77;11.27;;;;;;;16.14;50.88;100668.53;7388576;19;20028;-64
2023/04/23 10:17:33;;;;;;;15.20;11.48;;;;;;;16.17;50.62;100662.84;7389558;19;20048;-65
2023/04/23 10:20:00;;;;;;;15.75;11.45;;;;;;;16.24;50.78;100655.09;7388274;19;20051;-64
2023/04/23 10:22:29;;;;;;;15.45;11.05;;;;;;;16.26;50.85;100653.94;7389111;19;20448;-65
2023/04/23 10:24:59;;;;;;;15.70;10.20;;;;;;;16.40;51.29;100660.56;7388632;19;20026;-64
2023/04/23 10:27:28;;;;;;;15.90;10.68;;;;;;;16.45;50.91;100655.63;7390138;19;20077;-65
2023/04/23 10:30:16;;;;;;;16.45;11.15;;;;;;;16.54;50.86;100656.53;7388871;19;20015;-64
2023/04/23 10:32:44;;;;;;;16.10;11.82;;;;;;;16.59;50.32;100659.56;7387340;19;20018;-66
2023/04/23 10:35:11;;;;;;;16.20;11.55;;;;;;;16.57;50.52;100661.56;7388512;19;20381;-66
2023/04/23 10:37:40;;;;;;;15.77;10.60;;;;;;;16.56;50.54;100649.22;7389059;19;20019;-65
2023/04/23 10:40:12;;;;;;;14.30;10.43;;;;;;;16.68;51.30;100637.28;7388084;19;20082;-65
2023/04/23 10:42:42;;;;;;;15.90;11.27;;;;;;;16.75;50.95;100648.19;7388716;19;20027;-65
2023/04/23 10:45:16;;;;;;;14.95;10.10;;;;;;;16.79;50.60;100647.75;7392705;19;20122;-65
2023/04/23 10:47:54;;;;;;;16.67;12.13;;;;;;;16.71;51.01;100628.94;7394601;19;20039;-66
2023/04/23 10:50:30;;;;;;;18.70;13.23;;;;;;;16.71;51.00;100630.75;7395272;19;20019;-66
2023/04/23 10:52:57;;;;;;;18.92;11.93;;;;;;;16.82;51.42;100630.53;7394689;19;20029;-66
2023/04/23 10:55:31;;;;;;;16.25;11.98;;;;;;;16.93;51.49;100632.94;7393909;19;20102;-65
2023/04/23 10:58:01;;;;;;;17.90;12.75;;;;;;;17.02;51.01;100625.84;7395896;19;20085;-65
2023/04/23 11:00:44;;;;;;;17.83;13.00;;;;;;;17.25;50.58;100621.59;7394188;19;20053;-64
2023/04/23 11:03:35;;;;;;;17.00;12.25;;;;;;;17.24;51.58;100619.91;7392912;19;20051;-64
2023/04/23 11:06:11;;;;;;;19.63;13.25;;;;;;;17.16;51.64;100614.53;7395551;19;20019;-64
2023/04/23 11:08:52;;;;;;;17.65;13.43;;;;;;;17.20;51.69;100615.88;7395553;19;20018;-65
2023/04/23 11:11:38;;;;;;;19.98;14.10;;;;;;;17.15;51.62;100606.66;7394161;19;20014;-65
2023/04/23 11:14:14;;;;;;;18.25;13.30;;;;;;;17.38;51.56;100612.28;7391921;19;20015;-64
2023/04/23 11:16:43;;;;;;;18.02;13.10;;;;;;;17.59;50.93;100610.03;7395291;19;20059;-65